Time;durP1;ratioP1;P1;durP2;ratioP2;P2;SDS_P1;SDS_P2;PMS_P1;PMS_P2;Temp;Humidity;BMP_temperature;BMP_pressure;BME280_temperature;BME280_humidity;BME280_pressure;Samples;Min_cycle;Max_cycle;Signal;HPM_P1;HPM_P2
2022/05/05 00:01:50;;;;;;;;;;;;;;;11.62;67.71;96696.28;1705560;83;20092;-84
2022/05/05 00:04:18;;;;;;;;;;;;;;;11.62;67.87;96701.48;1704898;84;20130;-84
2022/05/05 00:06:43;;;;;;;;;;;;;;;11.57;68.14;96699.92;1705195;84;20127;-85
2022/05/05 00:09:09;;;;;;;;;;;;;;;11.50;68.37;96702.91;1703754;83;20126;-84
2022/05/05 00:14:24;;;;;;;;;;;;;;;11.34;68.20;96699.49;1682501;83;20149;-84
2022/05/05 00:16:58;;;;;;;;;;;;;;;11.28;68.30;96700.71;1710466;84;20102;-84
2022/05/05 00:19:25;;;;;;;;;;;;;;;11.21;68.44;96707.09;1710324;84;20411;-84
2022/05/05 00:21:51;;;;;;;;;;;;;;;11.15;68.65;96702.62;1711446;82;20120;-84
2022/05/05 00:24:17;;;;;;;;;;;;;;;11.09;68.70;96705.44;1687353;85;20159;-84
2022/05/05 00:26:43;;;;;;;;;;;;;;;11.04;68.76;96701.73;1715433;83;20114;-83
2022/05/05 00:29:08;;;;;;;;;;;;;;;11.01;68.92;96704.20;1694137;85;20310;-84
2022/05/05 00:31:34;;;;;;;;;;;;;;;10.98;69.08;96702.45;1683955;85;20159;-84
2022/05/05 00:34:00;;;;;;;;;;;;;;;10.95;69.21;96707.52;1682971;85;20123;-84
2022/05/05 00:36:27;;;;;;;;;;;;;;;10.94;69.51;96707.69;1717289;84;20090;-84
2022/05/05 00:38:52;;;;;;;;;;;;;;;10.92;69.61;96711.77;1717534;84;20082;-84
2022/05/05 00:41:18;;;;;;;;;;;;;;;10.93;69.68;96709.98;1717319;83;20322;-84
2022/05/05 00:43:43;;;;;;;;;;;;;;;10.92;69.85;96710.97;1717396;83;20097;-84
2022/05/05 00:46:09;;;;;;;;;;;;;;;10.91;69.90;96701.55;1717393;84;20134;-84
2022/05/05 00:48:34;;;;;;;;;;;;;;;10.90;70.01;96702.05;1717673;84;20102;-84
2022/05/05 00:51:00;;;;;;;;;;;;;;;10.91;70.23;96708.05;1717619;84;20082;-84
2022/05/05 00:53:26;;;;;;;;;;;;;;;10.91;70.27;96698.45;1721182;83;20065;-84
2022/05/05 00:55:55;;;;;;;;;;;;;;;10.91;70.38;96701.06;1724987;83;20109;-84
2022/05/05 00:58:23;;;;;;;;;;;;;;;10.91;70.59;96701.06;1724864;83;20105;-84
2022/05/05 01:00:49;;;;;;;;;;;;;;;10.92;70.62;96703.16;1725026;83;20142;-84
2022/05/05 01:03:15;;;;;;;;;;;;;;;10.91;70.64;96703.66;1725386;83;20138;-84
2022/05/05 01:05:40;;;;;;;;;;;;;;;10.92;70.69;96702.67;1709815;83;20120;-84
2022/05/05 01:08:06;;;;;;;;;;;;;;;10.94;70.88;96699.89;1724450;82;20117;-84
2022/05/05 01:10:32;;;;;;;;;;;;;;;10.94;70.94;96697.30;1725004;83;20133;-84
2022/05/05 01:12:58;;;;;;;;;;;;;;;10.96;70.92;96699.22;1725035;83;20090;-84
2022/05/05 01:15:24;;;;;;;;;;;;;;;10.99;70.82;96698.38;1725436;83;20113;-84
2022/05/05 01:17:50;;;;;;;;;;;;;;;11.04;70.92;96705.64;1725335;83;20089;-84
2022/05/05 01:20:18;;;;;;;;;;;;;;;11.07;70.84;96706.61;1725402;83;20104;-84
2022/05/05 01:22:44;;;;;;;;;;;;;;;11.11;70.76;96702.17;1725200;83;20109;-84
2022/05/05 01:28:12;;;;;;;;;;;;;;;11.15;70.86;96701.31;1725276;83;20393;-84
2022/05/05 01:30:43;;;;;;;;;;;;;;;11.14;70.95;96699.70;1725096;83;20156;-84
2022/05/05 01:33:16;;;;;;;;;;;;;;;11.10;70.94;96694.55;1725193;83;20374;-84
2022/05/05 01:35:42;;;;;;;;;;;;;;;11.05;71.25;96698.15;1725152;83;20149;-84
2022/05/05 01:38:09;;;;;;;;;;;;;;;11.01;71.09;96695.09;1725070;83;20088;-84
2022/05/05 01:40:36;;;;;;;;;;;;;;;10.99;71.25;96696.27;1724967;83;20323;-84
2022/05/05 01:43:03;;;;;;;;;;;;;;;10.96;71.25;96697.92;1724840;83;20124;-84
2022/05/05 01:45:30;;;;;;;;;;;;;;;10.92;71.13;96698.77;1723446;83;20136;-84
2022/05/05 01:47:56;;;;;;;;;;;;;;;10.90;71.19;96699.91;1725070;83;20094;-84
2022/05/05 01:50:22;;;;;;;;;;;;;;;10.88;71.19;96700.58;1725587;83;20105;-84
2022/05/05 01:52:48;;;;;;;;;;;;;;;10.83;71.28;96699.32;1728051;83;20073;-84
2022/05/05 01:55:14;;;;;;;;;;;;;;;10.80;71.31;96697.57;1726331;83;20358;-84
2022/05/05 01:57:39;;;;;;;;;;;;;;;10.77;71.47;96697.92;1726171;83;20350;-84
2022/05/05 02:00:06;;;;;;;;;;;;;;;10.76;71.53;96697.12;1725691;82;20390;-84
2022/05/05 02:02:32;;;;;;;;;;;;;;;10.74;71.82;96704.28;1725696;82;20089;-84
2022/05/05 02:04:58;;;;;;;;;;;;;;;10.69;71.84;96697.97;1725478;83;20097;-84
2022/05/05 02:07:23;;;;;;;;;;;;;;;10.65;71.80;96694.92;1725709;83;20155;-84
2022/05/05 02:09:49;;;;;;;;;;;;;;;10.61;71.96;96701.45;1724407;83;20105;-84
2022/05/05 02:12:14;;;;;;;;;;;;;;;10.60;71.87;96710.23;1725552;82;20128;-84
2022/05/05 02:14:40;;;;;;;;;;;;;;;10.64;71.81;96713.29;1725798;83;20382;-84
2022/05/05 02:17:05;;;;;;;;;;;;;;;10.64;71.77;96710.20;1725691;83;20124;-84
2022/05/05 02:19:31;;;;;;;;;;;;;;;10.66;71.83;96712.12;1725943;83;20099;-84
2022/05/05 02:21:58;;;;;;;;;;;;;;;10.68;71.94;96710.16;1725756;83;20089;-84
2022/05/05 02:24:23;;;;;;;;;;;;;;;10.67;71.92;96709.84;1725593;83;20165;-84
2022/05/05 02:26:49;;;;;;;;;;;;;;;10.67;72.05;96709.03;1718522;82;20113;-84
2022/05/05 02:29:15;;;;;;;;;;;;;;;10.65;72.06;96699.31;1686336;83;20325;-84
2022/05/05 02:31:40;;;;;;;;;;;;;;;10.62;72.34;96704.38;1694672;84;20158;-84
2022/05/05 02:34:08;;;;;;;;;;;;;;;10.60;72.47;96707.64;1725196;83;20359;-84
2022/05/05 02:39:19;;;;;;;;;;;;;;;10.59;72.37;96711.70;1705193;83;20411;-82
2022/05/05 02:41:45;;;;;;;;;;;;;;;10.58;72.58;96711.39;1709806;82;20112;-84
2022/05/05 02:44:10;;;;;;;;;;;;;;;10.59;72.50;96715.61;1725242;82;20098;-84
2022/05/05 02:46:36;;;;;;;;;;;;;;;10.61;72.70;96711.05;1697847;84;20157;-84
2022/05/05 02:49:01;;;;;;;;;;;;;;;10.62;72.67;96713.95;1725093;83;20375;-84
2022/05/05 02:51:27;;;;;;;;;;;;;;;10.63;72.75;96714.27;1696568;84;20086;-84
2022/05/05 02:56:37;;;;;;;;;;;;;;;10.64;72.86;96705.00;1693992;83;20108;-84
2022/05/05 02:59:03;;;;;;;;;;;;;;;10.66;73.12;96711.32;1694135;85;20123;-84
2022/05/05 03:01:28;;;;;;;;;;;;;;;10.67;73.12;96709.03;1689907;85;20099;-84
2022/05/05 03:03:54;;;;;;;;;;;;;;;10.69;73.10;96707.06;1691000;84;20143;-84
2022/05/05 03:06:20;;;;;;;;;;;;;;;10.72;73.13;96710.61;1688891;84;20147;-84
2022/05/05 03:08:45;;;;;;;;;;;;;;;10.77;73.01;96711.73;1684264;84;20368;-84
2022/05/05 03:11:11;;;;;;;;;;;;;;;10.85;72.98;96719.13;1672645;83;20152;-84
2022/05/05 03:13:37;;;;;;;;;;;;;;;10.92;72.99;96716.97;1724333;83;20094;-84
2022/05/05 03:16:04;;;;;;;;;;;;;;;10.99;73.09;96713.16;1676102;83;20149;-84
2022/05/05 03:18:30;;;;;;;;;;;;;;;11.06;72.97;96713.60;1723574;83;20149;-83
2022/05/05 03:20:55;;;;;;;;;;;;;;;11.12;73.05;96718.09;1724587;83;20112;-84
2022/05/05 03:23:21;;;;;;;;;;;;;;;11.16;72.95;96717.23;1724704;83;20089;-84
2022/05/05 03:25:47;;;;;;;;;;;;;;;11.16;72.80;96716.42;1724223;83;20112;-84
2022/05/05 03:28:13;;;;;;;;;;;;;;;11.16;72.71;96717.73;1724609;83;20125;-84
2022/05/05 03:30:39;;;;;;;;;;;;;;;11.16;72.74;96721.14;1724444;83;20116;-84
2022/05/05 03:33:05;;;;;;;;;;;;;;;11.13;72.68;96718.41;1724386;83;20334;-84
2022/05/05 03:35:31;;;;;;;;;;;;;;;11.09;72.65;96718.45;1720173;83;20132;-84
2022/05/05 03:37:57;;;;;;;;;;;;;;;11.06;72.63;96721.41;1709125;83;20378;-84
2022/05/05 03:40:23;;;;;;;;;;;;;;;11.04;72.67;96729.84;1716949;83;20112;-84
2022/05/05 03:42:49;;;;;;;;;;;;;;;11.03;72.71;96735.23;1695041;83;20341;-84
2022/05/05 03:45:14;;;;;;;;;;;;;;;11.03;72.58;96737.83;1689866;83;20150;-84
2022/05/05 03:47:40;;;;;;;;;;;;;;;11.03;72.57;96741.23;1693743;83;20067;-84
2022/05/05 03:50:08;;;;;;;;;;;;;;;11.05;72.51;96738.45;1693570;83;20139;-84
2022/05/05 03:52:35;;;;;;;;;;;;;;;11.06;72.62;96745.27;1698120;83;20105;-84
2022/05/05 03:55:01;;;;;;;;;;;;;;;11.08;72.77;96743.33;1699233;83;20386;-84
2022/05/05 03:57:26;;;;;;;;;;;;;;;11.09;72.77;96745.75;1696291;83;20105;-84
2022/05/05 03:59:52;;;;;;;;;;;;;;;11.12;72.89;96752.39;1700204;84;20156;-83
2022/05/05 04:02:18;;;;;;;;;;;;;;;11.14;72.95;96749.11;1725045;83;20110;-84
2022/05/05 04:04:43;;;;;;;;;;;;;;;11.18;73.08;96745.66;1689553;85;20374;-84
2022/05/05 04:07:09;;;;;;;;;;;;;;;11.20;73.25;96747.09;1725039;83;20102;-84
2022/05/05 04:09:34;;;;;;;;;;;;;;;11.24;73.30;96744.48;1692071;84;20143;-84
2022/05/05 04:12:00;;;;;;;;;;;;;;;11.31;73.40;96740.67;1725108;83;20106;-84
2022/05/05 04:14:25;;;;;;;;;;;;;;;11.38;73.24;96739.77;1696910;83;20143;-84
2022/05/05 04:16:51;;;;;;;;;;;;;;;11.47;73.07;96746.20;1683748;85;20462;-84
2022/05/05 04:19:17;;;;;;;;;;;;;;;11.52;72.89;96736.88;1725745;83;20120;-84
2022/05/05 04:21:42;;;;;;;;;;;;;;;11.66;72.80;96755.59;1725815;83;20082;-85
2022/05/05 04:24:08;;;;;;;;;;;;;;;11.78;72.82;96753.36;1725879;83;20097;-84
2022/05/05 04:26:34;;;;;;;;;;;;;;;11.88;72.75;96753.13;1725636;83;20133;-84
2022/05/05 04:28:59;;;;;;;;;;;;;;;11.98;72.62;96760.96;1725837;83;20128;-84
2022/05/05 04:31:27;;;;;;;;;;;;;;;12.07;72.72;96765.59;1725821;83;20135;-84
2022/05/05 04:33:53;;;;;;;;;;;;;;;12.13;72.62;96764.86;1696687;85;20254;-84
2022/05/05 04:36:18;;;;;;;;;;;;;;;12.19;72.45;96763.31;1696891;85;20942;-84
2022/05/05 04:38:44;;;;;;;;;;;;;;;12.23;72.63;96764.58;1696882;85;20084;-84
2022/05/05 04:41:09;;;;;;;;;;;;;;;12.25;72.87;96766.51;1696703;83;20147;-84
2022/05/05 04:43:35;;;;;;;;;;;;;;;12.26;72.90;96766.82;1722759;83;20180;-84
2022/05/05 04:46:01;;;;;;;;;;;;;;;12.30;72.61;96770.67;1703395;84;20130;-84
2022/05/05 04:48:26;;;;;;;;;;;;;;;12.33;72.70;96765.89;1702795;84;20391;-84
2022/05/05 04:50:52;;;;;;;;;;;;;;;12.50;72.66;96775.60;1703688;84;20108;-84
2022/05/05 04:53:18;;;;;;;;;;;;;;;12.58;73.06;96772.90;1703721;84;20110;-84
2022/05/05 04:55:43;;;;;;;;;;;;;;;12.71;73.43;96773.54;1690276;85;20190;-84
2022/05/05 04:58:09;;;;;;;;;;;;;;;12.84;73.46;96776.25;1690753;85;20127;-84
2022/05/05 05:00:36;;;;;;;;;;;;;;;12.88;73.31;96778.83;1691366;84;20372;-84
2022/05/05 05:03:01;;;;;;;;;;;;;;;12.88;73.36;96772.30;1690721;84;20103;-84
2022/05/05 05:05:27;;;;;;;;;;;;;;;12.92;73.30;96772.73;1699445;84;20134;-84
2022/05/05 05:07:53;;;;;;;;;;;;;;;13.01;73.29;96774.70;1699737;84;20379;-84
2022/05/05 05:10:18;;;;;;;;;;;;;;;13.14;73.55;96774.32;1699758;84;20103;-85
2022/05/05 05:12:44;;;;;;;;;;;;;;;13.28;73.21;96764.03;1699632;84;20179;-84
2022/05/05 05:15:10;;;;;;;;;;;;;;;13.44;73.80;96764.55;1699485;84;20126;-84
2022/05/05 05:17:36;;;;;;;;;;;;;;;13.62;73.04;96762.77;1699322;84;20114;-84
2022/05/05 05:20:03;;;;;;;;;;;;;;;13.79;73.05;96767.99;1699473;84;20135;-84
2022/05/05 05:22:29;;;;;;;;;;;;;;;13.92;72.37;96762.55;1699645;84;20210;-85
2022/05/05 05:24:55;;;;;;;;;;;;;;;14.05;72.43;96770.45;1698989;84;20356;-84
2022/05/05 05:27:21;;;;;;;;;;;;;;;14.15;72.63;96770.08;1695652;84;20107;-84
2022/05/05 05:29:46;;;;;;;;;;;;;;;14.24;72.44;96765.00;1701774;84;20482;-84
2022/05/05 05:32:12;;;;;;;;;;;;;;;14.34;72.74;96768.07;1702127;84;20091;-83
2022/05/05 05:34:38;;;;;;;;;;;;;;;14.42;72.92;96760.84;1701203;84;20146;-84
2022/05/05 05:37:04;;;;;;;;;;;;;;;14.50;73.37;96762.52;1702227;84;20151;-84
2022/05/05 05:39:30;;;;;;;;;;;;;;;14.55;72.18;96768.46;1701753;84;20127;-84
2022/05/05 05:41:56;;;;;;;;;;;;;;;14.60;70.90;96772.09;1702190;84;20131;-84
2022/05/05 05:44:22;;;;;;;;;;;;;;;14.63;70.82;96778.23;1698006;84;20107;-83
2022/05/05 05:46:47;;;;;;;;;;;;;;;14.66;70.59;96780.47;1702139;84;20126;-84
2022/05/05 05:49:13;;;;;;;;;;;;;;;14.68;70.90;96778.97;1702243;84;20404;-84
2022/05/05 05:51:39;;;;;;;;;;;;;;;14.68;70.92;96777.66;1702073;84;20155;-84
2022/05/05 05:54:05;;;;;;;;;;;;;;;14.69;71.08;96776.66;1701809;83;20099;-84
2022/05/05 05:56:31;;;;;;;;;;;;;;;14.69;70.75;96789.23;1670750;85;20309;-84
2022/05/05 05:58:57;;;;;;;;;;;;;;;14.67;70.80;96785.20;1700138;84;20200;-84
2022/05/05 06:03:53;;;;;;;;;;;;;;;14.63;70.22;96786.58;1695806;83;20188;-84
2022/05/05 06:03:53;;;;;;;;;;;;;;;14.62;69.84;96794.92;1677952;84;20111;-84
2022/05/05 06:06:21;;;;;;;;;;;;;;;14.63;70.77;96793.92;1681826;84;20096;-84
2022/05/05 06:08:46;;;;;;;;;;;;;;;14.65;71.16;96793.25;1689902;85;20096;-83
2022/05/05 06:11:12;;;;;;;;;;;;;;;14.66;71.15;96794.05;1696851;85;20328;-83
2022/05/05 06:13:38;;;;;;;;;;;;;;;14.73;70.85;96797.48;1668137;86;20187;-83
2022/05/05 06:16:06;;;;;;;;;;;;;;;14.80;71.04;96794.36;1696943;85;20187;-82
2022/05/05 06:18:32;;;;;;;;;;;;;;;14.88;71.54;96794.20;1667885;86;20087;-83
2022/05/05 06:20:58;;;;;;;;;;;;;;;15.00;70.92;96803.08;1697048;85;20095;-82
2022/05/05 06:23:24;;;;;;;;;;;;;;;15.12;71.41;96809.02;1667894;86;20088;-83
2022/05/05 06:25:50;;;;;;;;;;;;;;;15.19;71.79;96797.56;1693725;83;20091;-82
2022/05/05 06:28:15;;;;;;;;;;;;;;;15.38;71.28;96806.43;1670874;85;20088;-83
2022/05/05 06:30:41;;;;;;;;;;;;;;;15.58;71.25;96796.75;1700098;84;20177;-82
2022/05/05 06:33:06;;;;;;;;;;;;;;;15.78;70.36;96795.94;1670507;85;20088;-82
2022/05/05 06:35:32;;;;;;;;;;;;;;;15.87;66.64;96799.47;1700575;84;20157;-81
2022/05/05 06:37:57;;;;;;;;;;;;;;;15.93;67.52;96800.45;1682740;84;20343;-81
2022/05/05 06:40:24;;;;;;;;;;;;;;;16.01;67.27;96800.76;1683052;85;20136;-81
2022/05/05 06:42:50;;;;;;;;;;;;;;;16.00;65.87;96799.95;1682090;84;20172;-82
2022/05/05 06:45:16;;;;;;;;;;;;;;;16.04;66.03;96802.45;1681025;84;20180;-81
2022/05/05 06:47:41;;;;;;;;;;;;;;;16.10;65.22;96806.06;1676281;84;20089;-81
2022/05/05 06:50:08;;;;;;;;;;;;;;;16.15;65.37;96807.07;1698270;83;20386;-81
2022/05/05 06:52:33;;;;;;;;;;;;;;;16.18;65.34;96808.47;1697065;83;20355;-81
2022/05/05 06:55:00;;;;;;;;;;;;;;;16.20;65.80;96812.49;1703796;83;20121;-82
2022/05/05 06:57:26;;;;;;;;;;;;;;;16.15;63.86;96811.00;1707452;83;20123;-82
2022/05/05 06:59:51;;;;;;;;;;;;;;;16.16;63.59;96813.12;1718435;83;20347;-81
2022/05/05 07:02:17;;;;;;;;;;;;;;;16.20;64.51;96815.63;1682945;84;20151;-82
2022/05/05 07:07:28;;;;;;;;;;;;;;;16.26;63.41;96818.72;1676751;85;20751;-82
2022/05/05 07:12:37;;;;;;;;;;;;;;;16.29;61.56;96820.95;1676235;85;20418;-81
2022/05/05 07:15:03;;;;;;;;;;;;;;;16.35;61.14;96822.73;1662926;85;20118;-81
2022/05/05 07:17:29;;;;;;;;;;;;;;;16.41;60.89;96823.72;1669931;85;20140;-82
2022/05/05 07:19:54;;;;;;;;;;;;;;;16.47;61.66;96825.02;1677923;85;20105;-81
2022/05/05 07:22:20;;;;;;;;;;;;;;;16.55;61.01;96823.16;1688332;84;20119;-81
2022/05/05 07:24:46;;;;;;;;;;;;;;;16.62;61.35;96833.14;1685472;85;20172;-81
2022/05/05 07:27:12;;;;;;;;;;;;;;;16.64;60.99;96825.35;1687830;85;20107;-81
2022/05/05 07:29:38;;;;;;;;;;;;;;;16.69;60.13;96829.48;1690099;85;20127;-81
2022/05/05 07:32:04;;;;;;;;;;;;;;;16.72;59.72;96829.06;1689494;85;20127;-81
2022/05/05 07:34:30;;;;;;;;;;;;;;;16.78;59.95;96829.56;1690019;85;20334;-81
2022/05/05 07:36:55;;;;;;;;;;;;;;;16.79;58.86;96832.48;1690076;85;20083;-81
2022/05/05 07:39:22;;;;;;;;;;;;;;;16.80;59.03;96828.03;1689881;85;20310;-81
2022/05/05 07:41:49;;;;;;;;;;;;;;;16.75;60.29;96825.21;1689602;85;20202;-81
2022/05/05 07:44:15;;;;;;;;;;;;;;;16.73;59.92;96829.87;1689842;85;20128;-81
2022/05/05 07:46:41;;;;;;;;;;;;;;;16.71;59.79;96830.08;1689682;85;20167;-82
2022/05/05 07:49:07;;;;;;;;;;;;;;;16.71;59.73;96826.66;1690797;84;20405;-81
2022/05/05 07:51:32;;;;;;;;;;;;;;;16.67;58.51;96828.09;1696057;84;20086;-81
2022/05/05 07:56:43;;;;;;;;;;;;;;;16.67;59.35;96835.97;1691504;84;20162;-81
2022/05/05 07:59:09;;;;;;;;;;;;;;;16.66;59.42;96839.06;1696077;84;20125;-81
2022/05/05 08:01:34;;;;;;;;;;;;;;;16.70;59.30;96839.48;1694568;84;20103;-81
2022/05/05 08:04:00;;;;;;;;;;;;;;;16.72;58.59;96847.44;1692892;84;20321;-81
2022/05/05 08:06:26;;;;;;;;;;;;;;;16.76;59.82;96851.78;1692380;84;20135;-81
2022/05/05 08:08:51;;;;;;;;;;;;;;;16.79;59.47;96852.16;1701231;84;20122;-81
2022/05/05 08:11:17;;;;;;;;;;;;;;;16.83;58.78;96853.85;1696182;84;20156;-81
2022/05/05 08:13:43;;;;;;;;;;;;;;;16.90;57.85;96865.62;1690058;84;20411;-81
2022/05/05 08:16:09;;;;;;;;;;;;;;;16.91;58.39;96861.47;1698801;84;20147;-81
2022/05/05 08:18:38;;;;;;;;;;;;;;;16.95;58.14;96861.88;1695210;84;20130;-81
2022/05/05 08:21:02;;;;;;;;;;;;;;;17.00;57.82;96859.42;1699490;84;20116;-81
2022/05/05 08:23:27;;;;;;;;;;;;;;;17.04;57.10;96863.23;1690215;84;20128;-81
2022/05/05 08:28:40;;;;;;;;;;;;;;;17.11;57.46;96862.70;1694565;84;20101;-81
2022/05/05 08:31:06;;;;;;;;;;;;;;;17.24;57.78;96863.11;1692532;84;20989;-81
2022/05/05 08:33:31;;;;;;;;;;;;;;;17.31;57.30;96856.81;1688527;84;20173;-81
2022/05/05 08:35:58;;;;;;;;;;;;;;;17.38;57.46;96854.93;1690082;84;20147;-81
2022/05/05 08:38:24;;;;;;;;;;;;;;;17.51;57.69;96862.43;1690440;84;20107;-81
2022/05/05 08:40:52;;;;;;;;;;;;;;;17.61;56.67;96853.57;1688000;84;20131;-80
2022/05/05 08:43:18;;;;;;;;;;;;;;;17.68;56.08;96856.97;1688347;85;20349;-81
2022/05/05 08:45:45;;;;;;;;;;;;;;;17.74;56.27;96857.45;1689801;84;20277;-81
2022/05/05 08:48:12;;;;;;;;;;;;;;;17.81;55.74;96853.44;1689935;84;20397;-80
2022/05/05 08:50:39;;;;;;;;;;;;;;;17.84;55.97;96856.43;1690391;84;20111;-81
2022/05/05 08:53:05;;;;;;;;;;;;;;;17.92;56.28;96857.48;1695122;85;20111;-81
2022/05/05 08:55:32;;;;;;;;;;;;;;;18.03;56.96;96848.06;1688208;85;20209;-81
2022/05/05 08:57:59;;;;;;;;;;;;;;;18.17;56.56;96852.17;1699671;83;20133;-81
2022/05/05 09:00:27;;;;;;;;;;;;;;;18.28;56.01;96861.17;1650716;84;20115;-81
2022/05/05 09:02:54;;;;;;;;;;;;;;;18.36;55.78;96854.81;1699877;84;20411;-81
2022/05/05 09:05:45;;;;;;;;;;;;;;;18.36;55.02;96856.13;1673620;84;20400;-80
2022/05/05 09:08:12;;;;;;;;;;;;;;;18.36;54.10;96852.17;1621339;87;20161;-80
2022/05/05 09:10:44;;;;;;;;;;;;;;;18.34;53.94;96855.03;1629271;87;20111;-80
2022/05/05 09:13:10;;;;;;;;;;;;;;;18.34;54.77;96851.08;1667987;84;20144;-80
2022/05/05 09:15:36;;;;;;;;;;;;;;;18.48;54.93;96849.12;1699474;84;20346;-81
2022/05/05 09:18:15;;;;;;;;;;;;;;;18.71;53.39;96852.41;1674262;84;20366;-81
2022/05/05 09:20:42;;;;;;;;;;;;;;;18.71;52.94;96853.23;1698371;85;20104;-81
2022/05/05 09:23:07;;;;;;;;;;;;;;;18.85;53.72;96851.22;1697806;83;20165;-81
2022/05/05 09:25:46;;;;;;;;;;;;;;;18.91;53.55;96850.86;1670499;86;20115;-81
2022/05/05 09:28:18;;;;;;;;;;;;;;;19.04;54.01;96850.69;1670598;85;20104;-81
2022/05/05 09:30:49;;;;;;;;;;;;;;;19.21;53.94;96849.03;1670803;85;20120;-81
2022/05/05 09:33:18;;;;;;;;;;;;;;;19.32;52.36;96851.39;1697063;85;20315;-81
2022/05/05 09:35:44;;;;;;;;;;;;;;;19.41;52.03;96850.05;1686780;84;20141;-81
2022/05/05 09:38:10;;;;;;;;;;;;;;;19.51;52.87;96842.38;1698611;83;20735;-81
2022/05/05 09:40:36;;;;;;;;;;;;;;;19.59;51.75;96842.61;1669470;85;20092;-81
2022/05/05 09:43:02;;;;;;;;;;;;;;;19.61;49.61;96840.55;1698937;83;20111;-81
2022/05/05 09:45:31;;;;;;;;;;;;;;;19.61;49.36;96844.50;1700345;83;20092;-81
2022/05/05 09:47:59;;;;;;;;;;;;;;;19.68;50.54;96843.34;1699498;83;20122;-81
2022/05/05 09:50:27;;;;;;;;;;;;;;;19.58;50.43;96841.00;1667383;85;20146;-81
2022/05/05 09:58:24;;;;;;;;;;;;;;;19.81;51.07;96838.37;1670793;86;20170;-82
2022/05/05 10:01:04;;;;;;;;;;;;;;;19.96;50.14;96835.28;1677816;84;20174;-82
2022/05/05 10:06:19;;;;;;;;;;;;;;;20.14;50.05;96828.56;1699417;84;20169;-82
2022/05/05 10:08:45;;;;;;;;;;;;;;;20.23;49.14;96828.51;1699396;84;20147;-82
2022/05/05 10:11:14;;;;;;;;;;;;;;;20.22;49.71;96830.06;1699628;84;20118;-81
2022/05/05 10:13:39;;;;;;;;;;;;;;;20.18;49.31;96825.77;1699480;84;20162;-82
2022/05/05 10:16:05;;;;;;;;;;;;;;;20.23;49.78;96833.78;1699478;84;20384;-81
2022/05/05 10:18:37;;;;;;;;;;;;;;;20.18;47.05;96825.77;1699221;84;20144;-81
2022/05/05 10:21:02;;;;;;;;;;;;;;;20.12;47.19;96825.88;1691330;84;20084;-82
2022/05/05 10:23:48;;;;;;;;;;;;;;;20.22;47.57;96820.31;1690526;84;20103;-81
2022/05/05 10:26:14;;;;;;;;;;;;;;;20.26;47.39;96824.08;1695205;84;20155;-82
2022/05/05 10:28:49;;;;;;;;;;;;;;;20.35;48.22;96822.70;1689202;84;20149;-81
2022/05/05 10:31:12;;;;;;;;;;;;;;;20.43;47.62;96819.44;1693928;84;20120;-82
2022/05/05 10:34:01;;;;;;;;;;;;;;;20.49;47.51;96823.77;1691076;83;20383;-82
2022/05/05 10:36:28;;;;;;;;;;;;;;;20.52;47.02;96818.84;1695174;84;20098;-83
2022/05/05 10:38:55;;;;;;;;;;;;;;;20.63;47.76;96817.19;1699512;84;20098;-82
2022/05/05 10:41:41;;;;;;;;;;;;;;;20.66;46.96;96810.95;1699798;84;20083;-82
2022/05/05 10:44:23;;;;;;;;;;;;;;;20.75;48.15;96815.84;1698586;84;20091;-81
2022/05/05 10:47:03;;;;;;;;;;;;;;;20.87;47.37;96808.16;1688154;84;20088;-81
2022/05/05 10:49:41;;;;;;;;;;;;;;;20.91;45.44;96809.28;1677875;85;20128;-81
2022/05/05 10:52:23;;;;;;;;;;;;;;;20.92;46.02;96810.89;1646747;85;21181;-82
2022/05/05 10:54:50;;;;;;;;;;;;;;;21.00;47.85;96806.27;1685802;84;20439;-81
2022/05/05 10:57:30;;;;;;;;;;;;;;;21.04;47.56;96806.87;1640664;85;20153;-82
2022/05/05 11:00:13;;;;;;;;;;;;;;;20.86;45.23;96817.64;1681207;84;20124;-81
2022/05/05 11:03:00;;;;;;;;;;;;;;;20.67;46.96;96811.75;1673439;84;20112;-81
2022/05/05 11:05:31;;;;;;;;;;;;;;;20.66;46.69;96802.20;1689465;84;20096;-81
2022/05/05 11:08:14;;;;;;;;;;;;;;;20.67;46.09;96806.47;1680793;84;20103;-81
2022/05/05 11:11:40;;;;;;;;;;;;;;;20.42;46.08;96796.72;1678470;84;20119;-82
2022/05/05 11:13:38;;;;;;;;;;;;;;;20.24;46.57;96802.41;1689447;84;20119;-81
2022/05/05 11:22:18;;;;;;;;;;;;;;;20.38;47.43;96797.16;1681615;84;20350;-81
2022/05/05 11:24:48;;;;;;;;;;;;;;;20.38;47.95;96795.84;1685482;84;20128;-82
2022/05/05 11:27:22;;;;;;;;;;;;;;;20.46;45.88;96797.84;1679738;84;20168;-82
2022/05/05 11:29:55;;;;;;;;;;;;;;;20.31;47.73;96796.98;1714644;83;20098;-82
2022/05/05 11:32:24;;;;;;;;;;;;;;;20.25;48.34;96794.77;1680197;84;20105;-81
2022/05/05 11:34:51;;;;;;;;;;;;;;;20.13;47.06;96791.86;1707112;84;20173;-82
2022/05/05 11:37:17;;;;;;;;;;;;;;;20.04;47.86;96795.39;1691376;84;20417;-81
2022/05/05 11:39:42;;;;;;;;;;;;;;;20.15;47.18;96787.16;1689954;85;20118;-82
2022/05/05 11:42:10;;;;;;;;;;;;;;;20.08;46.50;96788.09;1686106;84;20094;-81
2022/05/05 11:44:41;;;;;;;;;;;;;;;20.00;46.26;96791.58;1682846;84;20093;-81
2022/05/05 11:47:16;;;;;;;;;;;;;;;19.93;47.34;96782.48;1688247;84;20111;-82
2022/05/05 11:49:48;;;;;;;;;;;;;;;20.11;47.01;96782.06;1692307;84;20092;-82
2022/05/05 11:52:23;;;;;;;;;;;;;;;20.26;46.32;96785.02;1686755;84;20471;-82
2022/05/05 11:54:51;;;;;;;;;;;;;;;20.55;46.89;96781.94;1700923;83;20378;-81
2022/05/05 11:57:34;;;;;;;;;;;;;;;20.93;46.73;96779.98;1690887;84;20327;-82
2022/05/05 12:02:44;;;;;;;;;;;;;;;21.46;46.13;96770.33;1692443;83;20360;-82
2022/05/05 12:05:10;;;;;;;;;;;;;;;21.72;47.48;96766.75;1701375;83;20082;-81
2022/05/05 12:07:35;;;;;;;;;;;;;;;21.73;46.18;96770.47;1701031;83;20344;-82
2022/05/05 12:10:07;;;;;;;;;;;;;;;21.66;45.09;96779.63;1699235;83;20139;-82
2022/05/05 12:12:33;;;;;;;;;;;;;;;21.47;45.26;96770.60;1693768;83;20134;-81
2022/05/05 12:15:00;;;;;;;;;;;;;;;21.28;46.28;96777.98;1700898;83;20172;-82
2022/05/05 12:17:37;;;;;;;;;;;;;;;21.16;46.51;96775.12;1696443;83;20096;-82
2022/05/05 12:20:05;;;;;;;;;;;;;;;21.03;45.66;96773.58;1669326;84;20129;-81
2022/05/05 12:22:32;;;;;;;;;;;;;;;20.84;45.51;96770.86;1683501;85;20333;-82
2022/05/05 12:25:12;;;;;;;;;;;;;;;20.70;46.11;96774.83;1669612;84;20130;-82
2022/05/05 12:27:34;;;;;;;;;;;;;;;20.60;47.35;96774.91;1686625;84;20169;-82
2022/05/05 12:30:01;;;;;;;;;;;;;;;20.52;48.08;96781.89;1682893;85;20145;-81
2022/05/05 12:32:27;;;;;;;;;;;;;;;20.40;47.03;96787.69;1699216;84;20147;-82
2022/05/05 12:35:07;;;;;;;;;;;;;;;20.21;47.24;96779.13;1693376;83;20139;-82
2022/05/05 12:37:33;;;;;;;;;;;;;;;20.08;47.42;96787.29;1689885;85;20172;-82
2022/05/05 12:40:01;;;;;;;;;;;;;;;20.01;48.10;96781.32;1690098;85;20156;-82
2022/05/05 12:42:39;;;;;;;;;;;;;;;19.95;47.43;96787.53;1679317;84;20166;-82
2022/05/05 12:45:16;;;;;;;;;;;;;;;19.92;47.12;96785.36;1680761;85;20559;-85
2022/05/05 12:47:44;;;;;;;;;;;;;;;19.95;47.76;96779.09;1700940;83;20166;-86
2022/05/05 12:50:43;;;;;;;;;;;;;;;19.89;47.64;96779.23;1704416;83;20119;-83
2022/05/05 13:01:31;;;;;;;;;;;;;;;19.95;47.07;96775.14;1686146;83;20377;-83
2022/05/05 13:04:08;;;;;;;;;;;;;;;20.04;46.86;96774.28;1695985;83;20397;-83
2022/05/05 13:06:36;;;;;;;;;;;;;;;20.10;47.17;96778.63;1701285;84;20099;-83
2022/05/05 13:09:02;;;;;;;;;;;;;;;20.18;46.15;96778.80;1701174;83;20413;-83
2022/05/05 13:11:28;;;;;;;;;;;;;;;20.20;46.35;96774.09;1702151;83;20134;-83
2022/05/05 13:13:53;;;;;;;;;;;;;;;20.21;45.54;96764.62;1703248;83;20121;-83
2022/05/05 13:16:19;;;;;;;;;;;;;;;20.28;46.47;96775.83;1677021;84;20158;-82
2022/05/05 13:18:44;;;;;;;;;;;;;;;20.34;46.73;96762.23;1703753;83;20097;-82
2022/05/05 13:21:10;;;;;;;;;;;;;;;20.36;45.52;96768.88;1687930;84;20144;-83
2022/05/05 13:23:36;;;;;;;;;;;;;;;20.37;46.41;96770.48;1657928;85;20323;-82
2022/05/05 13:26:03;;;;;;;;;;;;;;;20.40;46.01;96770.53;1675592;83;20167;-82
2022/05/05 13:28:31;;;;;;;;;;;;;;;20.41;46.55;96768.20;1671436;84;20366;-82
2022/05/05 13:30:56;;;;;;;;;;;;;;;20.39;47.32;96763.13;1722300;82;20338;-82
2022/05/05 13:33:22;;;;;;;;;;;;;;;20.52;46.63;96771.85;1701384;83;20091;-82
2022/05/05 13:35:48;;;;;;;;;;;;;;;20.64;46.72;96764.67;1680042;83;20085;-82
2022/05/05 13:38:14;;;;;;;;;;;;;;;20.85;47.38;96764.54;1668688;85;20159;-82